LEST

Santiago de Compostela Airport

Santiago de Compostela, Spain
TAF AMD LEST 220028Z 2200/2224 VRB03KT 8000 FEW010 TX27/2214Z TN14/2206Z TEMPO 2200/2209 3000 BR TEMPO 2200/2203 1400 BCFG PROB40 TEMPO 2200/2202 0800 BCFG BKN003 BKN005 TEMPO 2202/2208 0800 BCFG BKN002 PROB40 TEMPO 2202/2207 0350 FG VV001
Issued Valid From Valid To
Sep-22 @ 00:28 UTC
(3 hours ago)
Sep-22 @ 00:00 UTC
(3 hours ago)
Sep-23 @ 00:00 UTC
(in 21 hours)
to
to
to
to
to
to
TAF AMD LEST 220028Z 2200/2224 VRB03KT 8000 FEW010 TX27/2214Z TN14/2206Z TEMPO 2200/2209 3000 BR TEMPO 2200/2203 1400 BCFG PROB40 TEMPO 2200/2202 0800 BCFG BKN003 BKN005 TEMPO 2202/2208 0800 BCFG BKN002 PROB40 TEMPO 2202/2207 0350 FG VV001
Issued Sep-22 @ 00:28 UTC
(3 hours ago)
Valid From Sep-22 @ 00:00 UTC
(3 hours ago)
Valid To Sep-23 @ 00:00 UTC
(in 21 hours)
-
-
-
-
-
-